Time;durP1;ratioP1;P1;durP2;ratioP2;P2;SDS_P1;SDS_P2;PMS_P1;PMS_P2;Temp;Humidity;BMP_temperature;BMP_pressure;BME280_temperature;BME280_humidity;BME280_pressure;Samples;Min_cycle;Max_cycle;Signal;HPM_P1;HPM_P2
2022/05/17 00:00:18;;;;;;;;;9.25;8.50;;;;;22.19;48.63;101559.28;6281434;22;46932;-82
2022/05/17 00:02:44;;;;;;;;;14.50;12.00;;;;;22.18;48.33;101561.06;6309315;22;45547;-81
2022/05/17 00:05:10;;;;;;;;;4.67;4.67;;;;;22.19;47.91;101564.63;6310545;22;45222;-82
2022/05/17 00:07:35;;;;;;;;;6.00;5.00;;;;;22.22;47.77;101565.38;6310365;22;45377;-82
2022/05/17 00:10:08;;;;;;;;;6.33;5.33;;;;;22.24;47.98;101562.66;6281989;22;47866;-82
2022/05/17 00:12:35;;;;;;;;;4.00;2.33;;;;;22.27;47.76;101556.28;6281917;22;45337;-82
2022/05/17 00:15:00;;;;;;;;;8.00;5.75;;;;;22.29;48.07;101562.44;6310084;22;45507;-82
2022/05/17 00:17:26;;;;;;;;;5.00;4.00;;;;;22.31;47.65;101557.91;6308358;22;45459;-82
2022/05/17 00:19:51;;;;;;;;;7.00;6.00;;;;;22.33;47.58;101554.22;6310212;22;45404;-82
2022/05/17 00:22:17;;;;;;;;;5.33;5.00;;;;;22.33;47.60;101554.22;6283003;22;45629;-82
2022/05/17 00:24:43;;;;;;;;;5.00;5.00;;;;;22.34;47.52;101550.59;6310820;22;45364;-82
2022/05/17 00:27:09;;;;;;;;;4.67;4.67;;;;;22.34;47.76;101555.97;6283344;22;45373;-82
2022/05/17 00:29:35;;;;;;;;;6.00;6.00;;;;;22.36;47.82;101551.41;6283208;22;46939;-82
2022/05/17 00:32:00;;;;;;;;;5.67;5.00;;;;;22.36;47.92;101547.88;6311850;22;45212;-82
2022/05/17 00:34:27;;;;;;;;;5.00;4.00;;;;;22.37;47.72;101547.81;6311449;22;45160;-82
2022/05/17 00:36:53;;;;;;;;;4.67;4.67;;;;;22.39;47.78;101537.00;6311517;22;45156;-82
2022/05/17 00:39:19;;;;;;;;;4.00;4.00;;;;;22.41;47.70;101546.75;6310978;22;46459;-83
2022/05/17 00:41:44;;;;;;;;;4.00;4.00;;;;;22.39;47.81;101537.88;6283383;22;45215;-82
2022/05/17 00:46:57;;;;;;;;;5.00;5.00;;;;;22.38;47.82;101549.56;6312042;22;45109;-83
2022/05/17 00:49:34;;;;;;;;;7.00;7.00;;;;;22.36;47.90;101543.38;6283170;22;47502;-83
2022/05/17 00:52:06;;;;;;;;;5.00;5.00;;;;;22.33;47.86;101545.31;6311237;22;45434;-82
2022/05/17 00:54:34;;;;;;;;;5.00;4.00;;;;;22.34;47.68;101541.69;6311054;22;45287;-82
2022/05/17 00:57:13;;;;;;;;;4.33;3.67;;;;;22.34;48.12;101544.34;6282251;22;45462;-82
2022/05/17 00:59:39;;;;;;;;;5.00;5.00;;;;;22.30;47.94;101535.56;6308079;22;47386;-82
2022/05/17 01:02:08;;;;;;;;;4.00;4.00;;;;;22.28;48.39;101537.44;6281865;22;45948;-82
2022/05/17 01:04:34;;;;;;;;;3.67;3.00;;;;;22.24;48.03;101533.16;6310296;22;45361;-82
2022/05/17 01:07:12;;;;;;;;;6.00;4.67;;;;;22.23;48.05;101534.06;6281794;22;45252;-83
2022/05/17 01:09:37;;;;;;;;;6.00;5.00;;;;;22.22;47.96;101533.19;6281892;22;46985;-81
2022/05/17 01:12:03;;;;;;;;;3.67;3.67;;;;;22.22;47.89;101530.50;6281835;22;45389;-82
2022/05/17 01:17:13;;;;;;;;;5.00;5.00;;;;;22.20;47.82;101527.00;6310403;22;45105;-82
2022/05/17 01:19:41;;;;;;;;;5.00;3.67;;;;;22.22;48.04;101535.00;6309815;22;45223;-82
2022/05/17 01:22:07;;;;;;;;;0.00;0.00;;;;;22.19;47.80;101532.44;6310050;22;45323;-82
2022/05/17 01:24:33;;;;;;;;;2.33;2.33;;;;;22.16;47.75;101529.81;6309863;22;45452;-83
2022/05/17 01:27:10;;;;;;;;;5.67;5.67;;;;;22.16;47.78;101536.09;6281220;22;45294;-83
2022/05/17 01:29:42;;;;;;;;;4.67;4.33;;;;;22.16;47.82;101527.16;6282126;22;47092;-82
2022/05/17 01:32:10;;;;;;;;;4.00;4.00;;;;;22.16;47.80;101532.50;6282219;22;45355;-82
2022/05/17 01:34:37;;;;;;;;;4.00;4.00;;;;;22.15;47.83;101533.47;6282146;22;45221;-82
2022/05/17 01:37:04;;;;;;;;;8.67;6.00;;;;;22.13;47.59;101530.84;6310115;22;45135;-82
2022/05/17 01:39:34;;;;;;;;;3.00;3.00;;;;;22.10;47.69;101525.59;6311789;22;45371;-83
2022/05/17 01:41:59;;;;;;;;;6.00;4.67;;;;;22.10;47.78;101530.94;6283373;22;45328;-82
2022/05/17 01:44:25;;;;;;;;;6.33;4.00;;;;;22.09;47.79;101533.72;6314163;22;45328;-82
2022/05/17 01:46:53;;;;;;;;;3.33;3.33;;;;;22.09;47.78;101533.72;6290618;22;45180;-82
2022/05/17 01:49:19;;;;;;;;;6.33;3.67;;;;;22.11;47.52;101537.22;6316860;22;45129;-82
2022/05/17 01:51:45;;;;;;;;;4.33;4.00;;;;;22.11;47.62;101564.91;6314199;22;45825;-82
2022/05/17 01:54:10;;;;;;;;;5.00;4.67;;;;;22.12;47.59;101571.13;6317087;22;45373;-82
2022/05/17 01:56:36;;;;;;;;;6.33;5.00;;;;;22.08;47.81;101580.22;6284162;22;45455;-82
2022/05/17 01:59:02;;;;;;;;;5.00;3.00;;;;;21.96;47.62;101571.72;6282328;22;48385;-83
2022/05/17 02:01:27;;;;;;;;;5.00;4.00;;;;;21.90;48.00;101573.75;6282138;22;45723;-83
2022/05/17 02:03:53;;;;;;;;;4.33;4.00;;;;;21.85;48.31;101581.97;6310289;22;45354;-82
2022/05/17 02:06:20;;;;;;;;;3.33;3.33;;;;;21.77;48.21;101571.53;6309808;22;45340;-82
2022/05/17 02:08:45;;;;;;;;;4.67;4.67;;;;;21.72;48.53;101567.28;6281780;22;47115;-83
2022/05/17 02:11:11;;;;;;;;;6.33;3.67;;;;;21.69;48.66;101572.75;6281465;22;45241;-83
2022/05/17 02:13:41;;;;;;;;;3.50;3.50;;;;;21.63;48.48;101573.84;6281804;22;45197;-82
2022/05/17 02:16:08;;;;;;;;;4.50;4.00;;;;;21.63;48.60;101559.59;6308695;22;45353;-83
2022/05/17 02:18:35;;;;;;;;;3.67;3.67;;;;;21.58;48.81;101578.50;6281940;22;48397;-82
2022/05/17 02:21:00;;;;;;;;;3.67;3.67;;;;;21.57;48.78;101585.69;6309202;22;45151;-83
2022/05/17 02:23:26;;;;;;;;;7.50;4.00;;;;;21.56;49.03;101581.22;6281862;22;45118;-82
2022/05/17 02:25:51;;;;;;;;;3.00;2.33;;;;;21.56;49.09;101570.50;6281373;22;45249;-83
2022/05/17 02:28:17;;;;;;;;;5.75;4.25;;;;;21.58;49.22;101579.38;6281447;22;48278;-83
2022/05/17 02:30:44;;;;;;;;;4.25;4.25;;;;;21.59;48.82;101572.19;6307311;22;45804;-83
2022/05/17 02:33:10;;;;;;;;;7.25;5.00;;;;;21.59;48.82;101561.47;6309575;22;45428;-83
2022/05/17 02:35:37;;;;;;;;;3.33;3.33;;;;;21.61;48.84;101569.47;6281078;22;45448;-83
2022/05/17 02:38:03;;;;;;;;;3.00;3.00;;;;;21.56;48.79;101564.28;6309176;22;45383;-83
2022/05/17 02:40:29;;;;;;;;;4.33;4.33;;;;;21.56;49.08;101565.16;6281771;22;45390;-83
2022/05/17 02:42:57;;;;;;;;;4.00;3.33;;;;;21.55;48.72;101557.19;6282648;22;45353;-83
2022/05/17 02:45:22;;;;;;;;;4.67;3.00;;;;;21.54;48.81;101563.44;6281918;22;45662;-82
2022/05/17 02:47:48;;;;;;;;;4.00;4.00;;;;;21.52;48.79;101562.66;6282915;22;46328;-83
2022/05/17 02:50:14;;;;;;;;;4.00;3.00;;;;;21.50;48.85;101560.03;6282527;22;45182;-83
2022/05/17 02:52:43;;;;;;;;;3.67;3.67;;;;;21.49;48.93;101555.59;6283601;22;45160;-83
2022/05/17 02:55:09;;;;;;;;;5.00;3.00;;;;;21.50;48.79;101562.69;6283107;22;45377;-83
2022/05/17 02:57:35;;;;;;;;;2.67;2.67;;;;;21.51;48.70;101555.53;6311881;22;45407;-83
2022/05/17 03:00:01;;;;;;;;;2.00;2.00;;;;;21.53;48.58;101553.69;6288578;22;45295;-82
2022/05/17 03:02:27;;;;;;;;;5.50;5.00;;;;;21.55;48.86;101559.88;6287835;22;45232;-83
2022/05/17 03:04:53;;;;;;;;;4.33;4.00;;;;;21.56;48.52;101556.25;6284152;22;45311;-82
2022/05/17 03:07:18;;;;;;;;;4.00;4.00;;;;;21.56;48.88;101543.72;6311454;22;45217;-83
2022/05/17 03:09:44;;;;;;;;;3.67;3.67;;;;;21.57;48.83;101547.25;6311079;22;45225;-82
2022/05/17 03:12:10;;;;;;;;;4.33;4.00;;;;;21.56;48.54;101548.19;6312113;22;45359;-82
2022/05/17 03:14:36;;;;;;;;;5.50;4.50;;;;;21.51;48.60;101528.72;6283102;22;45962;-83
2022/05/17 03:17:11;;;;;;;;;5.00;4.00;;;;;21.47;49.16;101543.19;6282191;22;47270;-82
2022/05/17 03:19:36;;;;;;;;;3.00;3.00;;;;;21.45;49.24;101542.38;6282322;22;45315;-82
2022/05/17 03:22:02;;;;;;;;;3.00;3.00;;;;;21.41;49.17;101546.06;6282745;22;45403;-82
2022/05/17 03:24:27;;;;;;;;;4.33;3.33;;;;;21.36;49.15;101555.13;6282067;22;45566;-82
2022/05/17 03:26:53;;;;;;;;;4.00;4.00;;;;;21.33;49.23;101551.66;6310452;22;46124;-83
2022/05/17 03:29:18;;;;;;;;;5.75;5.75;;;;;21.29;49.45;101561.63;6310398;22;45280;-82
2022/05/17 03:31:44;;;;;;;;;5.75;4.75;;;;;21.24;49.62;101552.00;6282770;22;45448;-82
2022/05/17 03:34:09;;;;;;;;;8.25;6.50;;;;;21.21;49.51;101555.66;6282302;22;45267;-82
2022/05/17 03:36:35;;;;;;;;;5.50;5.25;;;;;21.19;49.57;101552.16;6282660;22;46945;-82
2022/05/17 03:39:01;;;;;;;;;6.00;4.50;;;;;21.14;50.16;101555.03;6310671;22;45231;-82
2022/05/17 03:41:26;;;;;;;;;4.00;4.00;;;;;21.09;50.35;101548.03;6282857;22;45241;-82
2022/05/17 03:43:52;;;;;;;;;6.33;4.00;;;;;21.06;50.25;101546.38;6283242;22;45468;-82
2022/05/17 03:46:17;;;;;;;;;4.00;4.00;;;;;21.04;50.16;101550.91;6309309;22;47087;-82
2022/05/17 03:48:43;;;;;;;;;4.75;4.25;;;;;21.02;50.32;101552.75;6284293;22;45144;-82
2022/05/17 03:51:19;;;;;;;;;7.50;6.25;;;;;21.01;50.52;101556.38;6326150;22;45200;-82
2022/05/17 03:53:46;;;;;;;;;4.67;4.67;;;;;21.03;50.79;101558.97;6299149;22;45646;-82
2022/05/17 03:56:14;;;;;;;;;3.50;3.00;;;;;21.01;50.75;101548.34;6297403;22;47017;-83
2022/05/17 03:58:40;;;;;;;;;3.25;3.00;;;;;21.03;50.58;101551.81;6295846;22;45286;-82
2022/05/17 04:01:06;;;;;;;;;4.00;4.00;;;;;21.00;50.71;101553.72;6286723;22;45221;-83
2022/05/17 04:03:33;;;;;;;;;4.75;4.75;;;;;20.97;50.78;101554.72;6310970;22;45355;-83
2022/05/17 04:05:59;;;;;;;;;5.00;5.00;;;;;20.91;50.97;101550.44;6282936;22;47914;-83
2022/05/17 04:08:24;;;;;;;;;6.00;3.33;;;;;20.88;50.64;101555.03;6284719;22;45221;-83
2022/05/17 04:10:50;;;;;;;;;5.00;5.00;;;;;20.87;50.64;101558.63;6313354;22;45152;-82
2022/05/17 04:13:16;;;;;;;;;4.00;4.00;;;;;20.85;50.64;101563.13;6287490;22;45492;-84
2022/05/17 04:15:42;;;;;;;;;6.67;6.00;;;;;20.84;51.09;101564.06;6291177;22;45936;-81
2022/05/17 04:18:08;;;;;;;;;5.50;4.75;;;;;20.81;51.07;101553.47;6290571;22;45357;-82
2022/05/17 04:20:34;;;;;;;;;5.67;5.00;;;;;20.79;51.03;101561.53;6288478;22;45267;-82
2022/05/17 04:23:00;;;;;;;;;7.00;6.00;;;;;20.75;50.94;101559.03;6312463;22;45357;-82
2022/05/17 04:25:29;;;;;;;;;6.00;4.00;;;;;20.74;51.23;101558.16;6282204;22;46997;-83
2022/05/17 04:27:57;;;;;;;;;5.67;5.67;;;;;20.70;51.28;101559.19;6282863;22;45181;-82
2022/05/17 04:30:26;;;;;;;;;5.67;5.00;;;;;20.69;51.30;101560.13;6283498;22;45373;-82
2022/05/17 04:32:51;;;;;;;;;6.00;6.00;;;;;20.66;51.37;101563.78;6282642;22;45759;-82
2022/05/17 04:35:17;;;;;;;;;7.25;6.25;;;;;;;;6282383;22;46695;-82
2022/05/17 04:37:44;;;;;;;;;8.00;8.00;;;;;20.64;51.20;101570.97;6282455;22;45247;-82
2022/05/17 04:40:13;;;;;;;;;7.25;7.25;;;;;20.63;51.54;101574.56;6282434;22;45178;-82
2022/05/17 04:42:40;;;;;;;;;9.00;8.00;;;;;20.62;51.64;101577.28;6282343;22;45426;-82
2022/05/17 04:45:11;;;;;;;;;8.00;7.00;;;;;20.65;51.71;101585.22;6281815;22;47185;-82
2022/05/17 04:47:41;;;;;;;;;9.75;7.75;;;;;20.67;51.71;101586.06;6310473;22;45397;-83
2022/05/17 04:50:11;;;;;;;;;8.75;7.50;;;;;20.67;51.76;101578.03;6282219;22;45295;-82
2022/05/17 04:52:39;;;;;;;;;11.50;9.75;;;;;20.68;52.02;101577.09;6281881;22;45318;-82
2022/05/17 04:55:06;;;;;;;;;9.75;8.25;;;;;20.69;52.12;101578.84;6281487;22;47387;-82
2022/05/17 04:57:34;;;;;;;;;7.00;7.00;;;;;20.72;52.16;101575.22;6310042;22;45093;-83
2022/05/17 05:00:05;;;;;;;;;7.50;7.50;;;;;20.70;52.07;101580.59;6310117;22;45209;-82
2022/05/17 05:02:30;;;;;;;;;6.50;6.00;;;;;20.72;52.29;101584.09;6281745;22;45437;-83
2022/05/17 05:04:56;;;;;;;;;8.00;8.00;;;;;20.74;52.01;101592.06;6308120;22;46359;-82
2022/05/17 05:07:23;;;;;;;;;10.75;10.00;;;;;20.74;52.33;101595.63;6288549;22;45218;-82
2022/05/17 05:09:49;;;;;;;;;7.00;7.00;;;;;20.76;52.35;101595.56;6282469;22;45274;-82
2022/05/17 05:12:14;;;;;;;;;10.00;7.00;;;;;20.82;52.44;101598.94;6311815;22;45086;-82
2022/05/17 05:14:40;;;;;;;;;8.00;7.00;;;;;20.87;52.33;101602.31;6281928;22;46295;-82
2022/05/17 05:17:05;;;;;;;;;8.00;7.25;;;;;20.92;52.23;101605.72;6283198;22;45401;-83
2022/05/17 05:19:31;;;;;;;;;8.00;7.25;;;;;20.96;52.29;101611.00;6282932;22;45286;-84
2022/05/17 05:21:58;;;;;;;;;9.50;9.50;;;;;20.97;52.10;101602.91;6283227;22;45620;-83
2022/05/17 05:24:31;;;;;;;;;9.50;8.75;;;;;21.02;52.39;101608.97;6282946;22;46085;-84
2022/05/17 05:27:02;;;;;;;;;7.00;6.00;;;;;21.05;52.44;101614.22;6283672;22;45667;-83
2022/05/17 05:29:43;;;;;;;;;9.00;8.75;;;;;21.09;52.28;101620.34;6284136;22;45138;-85
2022/05/17 05:32:11;;;;;;;;;10.00;9.25;;;;;21.14;52.21;101626.41;6320762;22;45287;-84
2022/05/17 05:42:35;;;;;;;;;;;;;;;;;;;;;
2022/05/17 05:49:13;;;;;;;;;11.75;11.00;;;;;21.39;51.93;101633.69;6195314;22;45829;-81
2022/05/17 06:00:31;;;;;;;;;;;;;;;;;;;;;
2022/05/17 07:19:33;;;;;;;;;;;;;;;;;;;;;
2022/05/17 07:40:16;;;;;;;;;10.33;6.33;;;;;22.95;47.02;101634.97;6205690;22;46585;-81
2022/05/17 07:42:50;;;;;;;;;5.00;4.00;;;;;23.05;46.49;101631.00;6280151;22;45328;-82
2022/05/17 07:45:16;;;;;;;;;4.00;2.00;;;;;23.14;46.71;101632.41;6281520;22;47728;-80
2022/05/17 07:47:44;;;;;;;;;6.00;6.00;;;;;23.19;45.96;101628.59;6280931;22;45672;-82
2022/05/17 07:50:23;;;;;;;;;;;;;;;;;;;;;
2022/05/17 07:52:49;;;;;;;;;6.00;6.00;;;;;23.31;44.84;101630.75;6308831;22;71737;-80
2022/05/17 07:55:15;;;;;;;;;7.33;7.00;;;;;23.37;44.91;101637.69;6281369;22;46345;-81
2022/05/17 07:57:40;;;;;;;;;5.00;5.00;;;;;23.43;44.61;101632.03;6307235;22;45176;-80
2022/05/17 08:00:09;;;;;;;;;6.00;6.00;;;;;23.50;44.21;101628.16;6281530;22;45265;-81
2022/05/17 08:02:44;;;;;;;;;6.33;6.33;;;;;23.59;43.66;101629.56;6281252;22;45259;-80
2022/05/17 08:05:10;;;;;;;;;6.00;4.00;;;;;23.65;43.67;101629.28;6281048;22;46775;-79
2022/05/17 08:07:35;;;;;;;;;4.00;4.00;;;;;23.75;43.34;101630.66;6281516;22;45347;-79
2022/05/17 08:10:01;;;;;;;;;5.67;4.00;;;;;23.88;43.20;101630.97;6309627;22;45411;-79
2022/05/17 08:12:26;;;;;;;;;6.00;5.00;;;;;24.01;43.10;101631.31;6307772;22;45375;-80
2022/05/17 08:14:52;;;;;;;;;7.00;7.00;;;;;24.13;42.84;101633.41;6281340;22;47172;-79
2022/05/17 08:17:32;;;;;;;;;5.33;5.00;;;;;24.25;42.45;101629.28;6309640;22;45182;-80
2022/05/17 08:20:07;;;;;;;;;6.00;6.00;;;;;24.37;41.87;101630.53;6281365;22;45217;-80
2022/05/17 08:22:36;;;;;;;;;5.00;5.00;;;;;24.49;41.71;101627.28;6281149;22;45760;-82
2022/05/17 08:27:50;;;;;;;;;5.67;4.00;;;;;24.67;41.07;101627.34;6276116;22;45476;-79
2022/05/17 08:30:19;;;;;;;;;7.00;5.00;;;;;24.77;40.42;101629.50;6309807;22;45580;-79
2022/05/17 08:35:39;;;;;;;;;3.00;3.00;;;;;24.86;40.07;101629.06;6309534;22;45674;-79
2022/05/17 08:38:05;;;;;;;;;6.00;5.00;;;;;24.94;38.85;101631.38;6281718;22;45413;-80
2022/05/17 08:41:06;;;;;;;;;4.67;4.00;;;;;24.99;38.84;101623.94;6281186;22;45393;-81
2022/05/17 08:43:52;;;;;;;;;6.33;5.67;;;;;25.12;39.01;101626.00;6281710;22;45253;-82
2022/05/17 08:46:33;;;;;;;;;7.00;4.00;;;;;25.23;39.05;101618.28;6307609;22;46243;-80
2022/05/17 08:49:07;;;;;;;;;3.00;3.00;;;;;25.35;37.82;101622.19;6309423;22;45275;-79
2022/05/17 08:51:39;;;;;;;;;5.33;3.00;;;;;25.41;37.61;101627.25;6309061;22;45160;-79
2022/05/17 08:54:08;;;;;;;;;3.00;3.00;;;;;25.47;37.26;101616.13;6302024;22;45563;-79
2022/05/17 08:56:39;;;;;;;;;3.33;3.33;;;;;25.56;37.19;101621.06;6278676;22;47283;-79
2022/05/17 08:59:06;;;;;;;;;3.00;3.00;;;;;25.61;36.83;101618.09;6308735;22;45389;-79
2022/05/17 09:01:43;;;;;;;;;2.67;2.00;;;;;25.70;36.97;101625.72;6309182;22;45373;-79
2022/05/17 09:04:30;;;;;;;;;3.00;3.00;;;;;25.75;36.62;101611.03;6309382;22;45141;-79
2022/05/17 09:07:08;;;;;;;;;3.00;3.00;;;;;25.85;36.60;101619.53;6287567;22;45582;-79
2022/05/17 09:09:50;;;;;;;;;2.33;2.33;;;;;25.93;36.34;101621.84;6307667;22;45544;-80
2022/05/17 09:12:44;;;;;;;;;2.00;2.00;;;;;26.01;35.93;101621.38;6308409;22;45485;-80
2022/05/17 09:15:15;;;;;;;;;1.67;1.67;;;;;26.07;35.76;101618.38;6306669;22;45327;-80
2022/05/17 09:17:40;;;;;;;;;3.00;3.00;;;;;26.13;35.29;101609.94;6280441;22;46860;-81
2022/05/17 09:20:09;;;;;;;;;3.33;3.33;;;;;26.23;35.82;101613.88;6280411;22;45446;-80
2022/05/17 09:22:36;;;;;;;;;2.33;2.00;;;;;26.32;35.42;101599.84;6281407;22;45345;-81
2022/05/17 09:25:13;;;;;;;;;4.00;3.67;;;;;26.38;35.28;101598.63;6281160;22;45453;-81
2022/05/17 09:27:45;;;;;;;;;3.33;1.67;;;;;26.47;34.57;101595.41;6280894;22;46428;-80
2022/05/17 09:30:30;;;;;;;;;1.67;1.00;;;;;26.55;33.84;101595.00;6281160;22;45264;-80
2022/05/17 09:33:08;;;;;;;;;3.67;2.00;;;;;26.65;33.54;101596.22;6309108;22;45335;-81
2022/05/17 09:35:42;;;;;;;;;1.00;1.00;;;;;26.70;33.48;101586.00;6280868;22;45871;-81
2022/05/17 09:38:15;;;;;;;;;2.00;2.00;;;;;26.77;33.41;101589.22;6281336;22;47291;-80
2022/05/17 09:40:45;;;;;;;;;1.67;1.67;;;;;26.82;33.15;101585.31;6308907;22;45088;-81
2022/05/17 09:43:12;;;;;;;;;4.00;2.00;;;;;26.92;33.34;101582.03;6281147;22;45279;-80
2022/05/17 09:45:45;;;;;;;;;1.33;1.33;;;;;27.01;33.22;101586.91;6281554;22;45432;-80
2022/05/17 09:48:12;;;;;;;;;3.33;3.33;;;;;27.09;32.98;101581.06;6308958;22;45364;-80
2022/05/17 09:53:56;;;;;;;;;2.33;0.00;;;;;27.28;32.69;101582.59;6309415;22;45338;-80
2022/05/17 09:56:26;;;;;;;;;1.00;1.00;;;;;27.40;33.14;101582.78;6282221;22;45658;-81
2022/05/17 09:58:57;;;;;;;;;1.00;1.00;;;;;27.46;32.98;101579.72;6282381;22;47192;-81
2022/05/17 10:01:48;;;;;;;;;1.00;1.00;;;;;27.51;33.28;101584.88;6283369;22;45419;-81
2022/05/17 10:09:05;;;;;;;;;;;;;;;;;;;;;
2022/05/17 10:11:58;;;;;;;;;2.00;1.00;;;;;27.67;32.81;101570.28;6059121;23;74518;-81
2022/05/17 10:50:57;;;;;;;;;1.00;1.00;;;;;29.12;29.21;101534.66;6213000;22;45402;-82
2022/05/17 10:53:37;;;;;;;;;2.00;2.00;;;;;29.13;28.55;101532.81;6310943;22;45366;-83
2022/05/17 10:56:26;;;;;;;;;2.33;1.67;;;;;29.16;28.30;101519.03;6309854;22;45657;-81
2022/05/17 10:59:19;;;;;;;;;3.33;2.00;;;;;29.26;29.20;101524.69;6309965;22;46218;-82
2022/05/17 11:09:59;;;;;;;;;;;;;;;;;;;;;
2022/05/17 11:13:11;;;;;;;;;;;;;;;;;;;;;
2022/05/17 11:56:21;;;;;;;;;4.00;3.00;;;;;31.06;26.83;101475.16;6133961;23;46852;-81
2022/05/17 13:45:36;;;;;;;;;6.33;5.00;;;;;31.43;28.01;101376.97;6292436;22;45338;-86
2022/05/17 13:49:09;;;;;;;;;;;;;;;;;;;;;
2022/05/17 13:51:53;;;;;;;;;5.33;5.33;;;;;32.12;27.33;101376.69;6243003;22;72338;-88
2022/05/17 13:54:42;;;;;;;;;5.33;4.00;;;;;32.28;26.97;101368.94;6243088;22;45378;-84
2022/05/17 13:57:34;;;;;;;;;;;;;;;;;;;;;
2022/05/17 14:00:46;;;;;;;;;5.33;3.00;;;;;32.49;26.91;101360.81;6337274;22;68572;-88
2022/05/17 14:03:41;;;;;;;;;3.33;2.33;;;;;32.53;27.17;101366.84;6311664;22;45379;-87
2022/05/17 14:07:31;;;;;;;;;;;;;;;;;;;;;
2022/05/17 14:14:07;;;;;;;;;4.75;3.50;;;;;31.79;27.71;101359.44;6275500;22;45329;-86
2022/05/17 14:58:48;;;;;;;;;;;;;;;;;;;;;
2022/05/17 15:26:15;;;;;;;;;4.00;3.33;;;;;32.75;26.51;101297.66;6153834;23;45280;-90
2022/05/17 15:29:01;;;;;;;;;2.67;2.67;;;;;32.70;26.03;101287.16;6134202;23;45194;-89
2022/05/17 16:03:31;;;;;;;;;;;;;;;;;;;;;
2022/05/17 16:06:30;;;;;;;;;7.00;4.67;;;;;33.09;26.84;101248.25;5946681;23;45428;-86
2022/05/17 16:09:47;;;;;;;;;4.75;3.25;;;;;33.14;27.07;101255.03;6202377;22;45530;-89
2022/05/17 16:13:09;;;;;;;;;;;;;;;;;;;;;
2022/05/17 16:16:03;;;;;;;;;;;;;;;;;;;;;
2022/05/17 16:28:52;;;;;;;;;4.00;4.00;;;;;33.07;26.76;101253.88;5952947;23;45389;-88
2022/05/17 16:31:58;;;;;;;;;;;;;;;;;;;;;
2022/05/17 16:34:53;;;;;;;;;6.25;4.00;;;;;32.97;27.31;101255.69;6275667;22;73010;-88
2022/05/17 16:37:19;;;;;;;;;4.00;4.00;;;;;32.77;27.34;101254.72;6254595;22;47073;-87
2022/05/17 16:40:35;;;;;;;;;;;;;;;;;;;;;
2022/05/17 16:44:07;;;;;;;;;;;;;;;;;;;;;
2022/05/17 16:50:20;;;;;;;;;4.33;4.33;;;;;33.27;27.04;101256.66;6250397;22;45351;-88
2022/05/17 17:00:10;;;;;;;;;;;;;;;;;;;;;
2022/05/17 17:21:20;;;;;;;;;;;;;;;;;;;;;
2022/05/17 17:24:44;;;;;;;;;;;;;;;;;;;;;
2022/05/17 17:37:53;;;;;;;;;;;;;;;;;;;;;
2022/05/17 17:40:27;;;;;;;;;6.00;5.75;;;;;35.43;24.09;101215.81;5925378;23;71112;-88
2022/05/17 17:46:51;;;;;;;;;5.00;4.00;;;;;34.74;24.87;101215.38;6016374;23;45374;-88
2022/05/17 18:35:08;;;;;;;;;6.67;5.00;;;;;30.09;30.97;101218.16;6182199;23;46122;-88
2022/05/17 18:41:28;;;;;;;;;5.67;5.00;;;;;29.73;31.63;101240.91;6151477;23;45141;-85
2022/05/17 18:44:40;;;;;;;;;7.00;5.75;;;;;29.58;31.50;101232.88;6274760;22;45573;-86
2022/05/17 18:53:30;;;;;;;;;7.33;7.33;;;;;29.19;32.58;101253.91;6211866;22;45535;-81
2022/05/17 21:11:42;;;;;;;;;;;;;;;;;;;;;
2022/05/17 22:56:30;;;;;;;;;6.75;6.75;;;;;26.53;41.75;101397.06;6195807;22;46039;-85
2022/05/17 22:58:55;;;;;;;;;6.00;6.00;;;;;26.50;41.42;101408.88;6250998;22;45700;-90
2022/05/17 23:48:46;;;;;;;;;5.00;5.00;;;;;25.26;45.67;101454.59;6196852;22;46769;-84
2022/05/17 23:51:14;;;;;;;;;5.00;5.00;;;;;25.19;46.03;101449.59;6279361;22;45252;-85
2022/05/17 23:53:39;;;;;;;;;6.00;6.00;;;;;25.15;46.35;101454.25;6280827;22;47199;-84
2022/05/17 23:56:05;;;;;;;;;4.75;4.00;;;;;25.08;46.41;101458.22;6281885;22;45528;-84
2022/05/17 23:58:34;;;;;;;;;6.50;5.50;;;;;25.02;46.80;101467.50;6280451;22;45376;-85
